sensor_id;sensor_type;location;lat;lon;timestamp;P1;durP1;ratioP1;P2;durP2;ratioP2
48522;SDS011;34315;50.150;11.070;2024-01-25T00:04:42;14.00;;;2.88;;
48522;SDS011;34315;50.150;11.070;2024-01-25T00:09:43;14.43;;;2.70;;
48522;SDS011;34315;50.150;11.070;2024-01-25T00:14:44;19.70;;;2.83;;
48522;SDS011;34315;50.150;11.070;2024-01-25T00:19:45;13.07;;;2.90;;
48522;SDS011;34315;50.150;11.070;2024-01-25T00:24:46;14.68;;;2.65;;
48522;SDS011;34315;50.150;11.070;2024-01-25T00:29:48;18.48;;;2.65;;
48522;SDS011;34315;50.150;11.070;2024-01-25T00:34:49;15.75;;;2.92;;
48522;SDS011;34315;50.150;11.070;2024-01-25T00:39:50;19.75;;;2.90;;
48522;SDS011;34315;50.150;11.070;2024-01-25T00:44:51;16.98;;;2.95;;
48522;SDS011;34315;50.150;11.070;2024-01-25T00:49:53;12.75;;;2.47;;
48522;SDS011;34315;50.150;11.070;2024-01-25T00:54:54;12.55;;;3.25;;
48522;SDS011;34315;50.150;11.070;2024-01-25T00:59:56;13.75;;;2.97;;
48522;SDS011;34315;50.150;11.070;2024-01-25T01:04:57;11.85;;;2.90;;
48522;SDS011;34315;50.150;11.070;2024-01-25T01:09:59;14.18;;;2.95;;
48522;SDS011;34315;50.150;11.070;2024-01-25T01:15:00;17.63;;;3.05;;
48522;SDS011;34315;50.150;11.070;2024-01-25T01:20:01;21.88;;;3.75;;
48522;SDS011;34315;50.150;11.070;2024-01-25T01:25:02;17.55;;;2.97;;
48522;SDS011;34315;50.150;11.070;2024-01-25T01:30:03;13.85;;;2.92;;
48522;SDS011;34315;50.150;11.070;2024-01-25T01:35:05;16.70;;;3.72;;
48522;SDS011;34315;50.150;11.070;2024-01-25T01:40:06;18.00;;;3.13;;
48522;SDS011;34315;50.150;11.070;2024-01-25T01:45:08;18.80;;;3.95;;
48522;SDS011;34315;50.150;11.070;2024-01-25T01:50:12;19.13;;;3.85;;
48522;SDS011;34315;50.150;11.070;2024-01-25T01:55:13;21.17;;;3.60;;
48522;SDS011;34315;50.150;11.070;2024-01-25T02:00:14;16.70;;;3.03;;
48522;SDS011;34315;50.150;11.070;2024-01-25T02:05:17;18.52;;;2.58;;
48522;SDS011;34315;50.150;11.070;2024-01-25T02:10:18;17.45;;;3.45;;
48522;SDS011;34315;50.150;11.070;2024-01-25T02:15:19;20.50;;;4.15;;
48522;SDS011;34315;50.150;11.070;2024-01-25T02:20:20;22.88;;;3.60;;
48522;SDS011;34315;50.150;11.070;2024-01-25T02:25:21;24.20;;;3.85;;
48522;SDS011;34315;50.150;11.070;2024-01-25T02:30:22;22.95;;;4.05;;
48522;SDS011;34315;50.150;11.070;2024-01-25T02:35:23;18.88;;;3.65;;
48522;SDS011;34315;50.150;11.070;2024-01-25T02:40:24;15.85;;;3.58;;
48522;SDS011;34315;50.150;11.070;2024-01-25T02:45:26;18.08;;;3.45;;
48522;SDS011;34315;50.150;11.070;2024-01-25T02:50:27;17.45;;;3.90;;
48522;SDS011;34315;50.150;11.070;2024-01-25T02:55:28;22.30;;;3.72;;
48522;SDS011;34315;50.150;11.070;2024-01-25T03:00:29;16.33;;;3.05;;
48522;SDS011;34315;50.150;11.070;2024-01-25T03:05:30;12.38;;;3.03;;
48522;SDS011;34315;50.150;11.070;2024-01-25T03:10:31;17.05;;;3.17;;
48522;SDS011;34315;50.150;11.070;2024-01-25T03:15:32;13.38;;;2.60;;
48522;SDS011;34315;50.150;11.070;2024-01-25T03:20:33;16.23;;;3.38;;
48522;SDS011;34315;50.150;11.070;2024-01-25T03:25:35;14.23;;;2.95;;
48522;SDS011;34315;50.150;11.070;2024-01-25T03:30:36;17.60;;;3.42;;
48522;SDS011;34315;50.150;11.070;2024-01-25T03:35:37;17.85;;;3.53;;
48522;SDS011;34315;50.150;11.070;2024-01-25T03:40:38;20.15;;;2.97;;
48522;SDS011;34315;50.150;11.070;2024-01-25T03:45:41;13.60;;;3.20;;
48522;SDS011;34315;50.150;11.070;2024-01-25T03:50:42;14.20;;;3.13;;
48522;SDS011;34315;50.150;11.070;2024-01-25T03:55:43;15.77;;;3.83;;
48522;SDS011;34315;50.150;11.070;2024-01-25T04:00:44;13.25;;;3.00;;
48522;SDS011;34315;50.150;11.070;2024-01-25T04:05:45;20.48;;;3.80;;
48522;SDS011;34315;50.150;11.070;2024-01-25T04:10:47;21.27;;;4.60;;
48522;SDS011;34315;50.150;11.070;2024-01-25T04:15:48;21.10;;;5.07;;
48522;SDS011;34315;50.150;11.070;2024-01-25T04:20:49;19.35;;;4.03;;
48522;SDS011;34315;50.150;11.070;2024-01-25T04:25:51;18.55;;;4.00;;
48522;SDS011;34315;50.150;11.070;2024-01-25T04:30:52;13.75;;;4.53;;
48522;SDS011;34315;50.150;11.070;2024-01-25T04:35:53;18.65;;;3.15;;
48522;SDS011;34315;50.150;11.070;2024-01-25T04:40:54;18.63;;;3.35;;
48522;SDS011;34315;50.150;11.070;2024-01-25T04:45:55;19.48;;;3.40;;
48522;SDS011;34315;50.150;11.070;2024-01-25T04:50:57;14.77;;;2.92;;
48522;SDS011;34315;50.150;11.070;2024-01-25T04:55:59;20.60;;;4.15;;
48522;SDS011;34315;50.150;11.070;2024-01-25T05:01:00;25.05;;;3.80;;
48522;SDS011;34315;50.150;11.070;2024-01-25T05:06:01;18.17;;;3.55;;
48522;SDS011;34315;50.150;11.070;2024-01-25T05:11:02;17.30;;;2.92;;
48522;SDS011;34315;50.150;11.070;2024-01-25T05:16:04;12.35;;;3.13;;
48522;SDS011;34315;50.150;11.070;2024-01-25T05:21:05;19.35;;;3.75;;
48522;SDS011;34315;50.150;11.070;2024-01-25T05:26:06;23.40;;;3.80;;
48522;SDS011;34315;50.150;11.070;2024-01-25T05:31:07;16.65;;;3.65;;
48522;SDS011;34315;50.150;11.070;2024-01-25T05:36:13;16.05;;;3.28;;
48522;SDS011;34315;50.150;11.070;2024-01-25T05:41:14;17.73;;;4.43;;
48522;SDS011;34315;50.150;11.070;2024-01-25T05:46:15;11.27;;;3.00;;
48522;SDS011;34315;50.150;11.070;2024-01-25T05:51:16;19.23;;;4.63;;
48522;SDS011;34315;50.150;11.070;2024-01-25T05:56:18;19.45;;;3.70;;
48522;SDS011;34315;50.150;11.070;2024-01-25T06:01:19;26.23;;;4.40;;
48522;SDS011;34315;50.150;11.070;2024-01-25T06:06:20;16.08;;;3.92;;
48522;SDS011;34315;50.150;11.070;2024-01-25T06:11:21;14.73;;;3.95;;
48522;SDS011;34315;50.150;11.070;2024-01-25T06:16:22;18.30;;;3.63;;
48522;SDS011;34315;50.150;11.070;2024-01-25T06:21:23;19.52;;;4.15;;
48522;SDS011;34315;50.150;11.070;2024-01-25T06:26:25;18.88;;;4.18;;
48522;SDS011;34315;50.150;11.070;2024-01-25T06:31:26;16.52;;;3.60;;
48522;SDS011;34315;50.150;11.070;2024-01-25T06:36:27;14.70;;;4.50;;
48522;SDS011;34315;50.150;11.070;2024-01-25T06:41:29;17.50;;;3.67;;
48522;SDS011;34315;50.150;11.070;2024-01-25T06:46:30;20.67;;;3.60;;
48522;SDS011;34315;50.150;11.070;2024-01-25T06:51:31;19.23;;;3.60;;
48522;SDS011;34315;50.150;11.070;2024-01-25T06:56:34;18.48;;;4.82;;
48522;SDS011;34315;50.150;11.070;2024-01-25T07:01:35;23.70;;;4.50;;
48522;SDS011;34315;50.150;11.070;2024-01-25T07:06:36;15.52;;;3.72;;
48522;SDS011;34315;50.150;11.070;2024-01-25T07:11:37;17.42;;;3.60;;
48522;SDS011;34315;50.150;11.070;2024-01-25T07:16:38;21.58;;;3.88;;
48522;SDS011;34315;50.150;11.070;2024-01-25T07:21:39;13.00;;;3.63;;
48522;SDS011;34315;50.150;11.070;2024-01-25T07:26:41;21.13;;;4.30;;
48522;SDS011;34315;50.150;11.070;2024-01-25T07:31:42;23.48;;;5.07;;
48522;SDS011;34315;50.150;11.070;2024-01-25T07:36:43;16.05;;;4.57;;
48522;SDS011;34315;50.150;11.070;2024-01-25T07:41:44;19.77;;;4.80;;
48522;SDS011;34315;50.150;11.070;2024-01-25T07:46:47;15.40;;;4.22;;
48522;SDS011;34315;50.150;11.070;2024-01-25T07:51:48;18.30;;;3.70;;
48522;SDS011;34315;50.150;11.070;2024-01-25T07:56:50;15.32;;;3.55;;
48522;SDS011;34315;50.150;11.070;2024-01-25T08:01:51;23.55;;;3.72;;
48522;SDS011;34315;50.150;11.070;2024-01-25T08:06:52;15.95;;;4.13;;
48522;SDS011;34315;50.150;11.070;2024-01-25T08:11:54;14.45;;;4.40;;
48522;SDS011;34315;50.150;11.070;2024-01-25T08:16:55;11.90;;;3.45;;
48522;SDS011;34315;50.150;11.070;2024-01-25T08:21:56;16.30;;;4.57;;
48522;SDS011;34315;50.150;11.070;2024-01-25T08:26:57;20.13;;;4.55;;
48522;SDS011;34315;50.150;11.070;2024-01-25T08:31:58;16.40;;;4.40;;
48522;SDS011;34315;50.150;11.070;2024-01-25T08:36:59;23.17;;;5.25;;
48522;SDS011;34315;50.150;11.070;2024-01-25T08:42:01;19.77;;;4.07;;
48522;SDS011;34315;50.150;11.070;2024-01-25T08:47:04;15.15;;;3.42;;
48522;SDS011;34315;50.150;11.070;2024-01-25T08:52:05;18.15;;;3.95;;
48522;SDS011;34315;50.150;11.070;2024-01-25T08:57:07;14.88;;;3.80;;
48522;SDS011;34315;50.150;11.070;2024-01-25T09:02:08;15.25;;;3.55;;
48522;SDS011;34315;50.150;11.070;2024-01-25T09:07:09;17.23;;;3.63;;
48522;SDS011;34315;50.150;11.070;2024-01-25T09:12:11;19.45;;;3.75;;
48522;SDS011;34315;50.150;11.070;2024-01-25T09:17:13;21.92;;;4.25;;
48522;SDS011;34315;50.150;11.070;2024-01-25T09:22:15;15.48;;;3.05;;
48522;SDS011;34315;50.150;11.070;2024-01-25T09:27:18;15.02;;;3.20;;
48522;SDS011;34315;50.150;11.070;2024-01-25T09:32:19;23.85;;;4.07;;
48522;SDS011;34315;50.150;11.070;2024-01-25T09:37:21;18.83;;;3.83;;
48522;SDS011;34315;50.150;11.070;2024-01-25T09:42:24;15.95;;;4.55;;
48522;SDS011;34315;50.150;11.070;2024-01-25T09:47:26;15.40;;;4.57;;
48522;SDS011;34315;50.150;11.070;2024-01-25T09:52:27;20.33;;;5.22;;
48522;SDS011;34315;50.150;11.070;2024-01-25T09:57:28;12.85;;;4.25;;
48522;SDS011;34315;50.150;11.070;2024-01-25T10:02:31;20.73;;;4.35;;
48522;SDS011;34315;50.150;11.070;2024-01-25T10:07:35;20.48;;;5.22;;
48522;SDS011;34315;50.150;11.070;2024-01-25T10:12:40;15.05;;;4.32;;
48522;SDS011;34315;50.150;11.070;2024-01-25T10:17:42;14.00;;;4.03;;
48522;SDS011;34315;50.150;11.070;2024-01-25T10:22:43;16.10;;;4.57;;
48522;SDS011;34315;50.150;11.070;2024-01-25T10:27:44;20.88;;;4.18;;
48522;SDS011;34315;50.150;11.070;2024-01-25T10:32:45;11.02;;;3.25;;
48522;SDS011;34315;50.150;11.070;2024-01-25T10:37:47;14.43;;;2.72;;
48522;SDS011;34315;50.150;11.070;2024-01-25T10:42:48;18.73;;;4.38;;
48522;SDS011;34315;50.150;11.070;2024-01-25T10:47:50;20.20;;;4.07;;
48522;SDS011;34315;50.150;11.070;2024-01-25T10:52:51;13.05;;;3.53;;
48522;SDS011;34315;50.150;11.070;2024-01-25T10:57:52;18.98;;;3.60;;
48522;SDS011;34315;50.150;11.070;2024-01-25T11:02:55;17.63;;;3.33;;
48522;SDS011;34315;50.150;11.070;2024-01-25T11:07:56;16.73;;;3.25;;
48522;SDS011;34315;50.150;11.070;2024-01-25T11:12:57;10.60;;;2.90;;
48522;SDS011;34315;50.150;11.070;2024-01-25T11:18:00;11.65;;;2.75;;
48522;SDS011;34315;50.150;11.070;2024-01-25T11:23:02;11.15;;;2.85;;
48522;SDS011;34315;50.150;11.070;2024-01-25T11:28:07;12.07;;;2.63;;
48522;SDS011;34315;50.150;11.070;2024-01-25T11:33:08;12.55;;;2.35;;
48522;SDS011;34315;50.150;11.070;2024-01-25T11:38:10;13.57;;;2.92;;
48522;SDS011;34315;50.150;11.070;2024-01-25T11:43:11;13.32;;;3.17;;
48522;SDS011;34315;50.150;11.070;2024-01-25T11:48:14;10.45;;;2.83;;
48522;SDS011;34315;50.150;11.070;2024-01-25T11:53:15;16.80;;;2.85;;
48522;SDS011;34315;50.150;11.070;2024-01-25T11:58:17;11.27;;;2.35;;
48522;SDS011;34315;50.150;11.070;2024-01-25T12:03:18;12.32;;;2.10;;
48522;SDS011;34315;50.150;11.070;2024-01-25T12:08:19;15.93;;;3.53;;
48522;SDS011;34315;50.150;11.070;2024-01-25T12:13:20;14.55;;;2.80;;
48522;SDS011;34315;50.150;11.070;2024-01-25T12:18:21;17.55;;;3.95;;
48522;SDS011;34315;50.150;11.070;2024-01-25T12:23:22;16.83;;;3.42;;
48522;SDS011;34315;50.150;11.070;2024-01-25T12:28:25;15.00;;;3.75;;
48522;SDS011;34315;50.150;11.070;2024-01-25T12:33:27;14.23;;;2.67;;
48522;SDS011;34315;50.150;11.070;2024-01-25T12:38:28;11.25;;;2.67;;
48522;SDS011;34315;50.150;11.070;2024-01-25T12:43:31;18.05;;;3.53;;
48522;SDS011;34315;50.150;11.070;2024-01-25T12:48:33;13.77;;;2.58;;
48522;SDS011;34315;50.150;11.070;2024-01-25T12:53:34;13.18;;;3.15;;
48522;SDS011;34315;50.150;11.070;2024-01-25T12:58:35;15.13;;;3.33;;
48522;SDS011;34315;50.150;11.070;2024-01-25T13:03:36;15.18;;;2.75;;
48522;SDS011;34315;50.150;11.070;2024-01-25T13:08:37;12.75;;;2.50;;
48522;SDS011;34315;50.150;11.070;2024-01-25T13:13:38;12.07;;;2.40;;
48522;SDS011;34315;50.150;11.070;2024-01-25T13:18:39;13.45;;;2.58;;
48522;SDS011;34315;50.150;11.070;2024-01-25T13:23:40;9.73;;;2.42;;
48522;SDS011;34315;50.150;11.070;2024-01-25T13:28:41;10.98;;;2.35;;
48522;SDS011;34315;50.150;11.070;2024-01-25T13:33:42;11.30;;;2.17;;
48522;SDS011;34315;50.150;11.070;2024-01-25T13:38:43;13.57;;;2.47;;
48522;SDS011;34315;50.150;11.070;2024-01-25T13:43:45;9.50;;;2.55;;
48522;SDS011;34315;50.150;11.070;2024-01-25T13:48:46;11.93;;;2.65;;
48522;SDS011;34315;50.150;11.070;2024-01-25T13:53:47;13.10;;;2.60;;
48522;SDS011;34315;50.150;11.070;2024-01-25T13:58:51;13.68;;;2.40;;
48522;SDS011;34315;50.150;11.070;2024-01-25T14:03:52;13.55;;;2.85;;
48522;SDS011;34315;50.150;11.070;2024-01-25T14:08:53;13.90;;;2.97;;
48522;SDS011;34315;50.150;11.070;2024-01-25T14:13:54;15.02;;;2.90;;
48522;SDS011;34315;50.150;11.070;2024-01-25T14:18:55;11.35;;;2.28;;
48522;SDS011;34315;50.150;11.070;2024-01-25T14:23:58;10.23;;;2.45;;
48522;SDS011;34315;50.150;11.070;2024-01-25T14:28:59;11.80;;;2.40;;
48522;SDS011;34315;50.150;11.070;2024-01-25T14:34:00;13.10;;;2.67;;
48522;SDS011;34315;50.150;11.070;2024-01-25T14:39:01;11.60;;;2.58;;
48522;SDS011;34315;50.150;11.070;2024-01-25T14:44:04;10.15;;;2.47;;
48522;SDS011;34315;50.150;11.070;2024-01-25T14:49:07;8.52;;;2.22;;
48522;SDS011;34315;50.150;11.070;2024-01-25T14:54:08;9.52;;;2.30;;
48522;SDS011;34315;50.150;11.070;2024-01-25T14:59:09;15.20;;;2.90;;
48522;SDS011;34315;50.150;11.070;2024-01-25T15:04:10;10.48;;;2.90;;
48522;SDS011;34315;50.150;11.070;2024-01-25T15:09:12;7.35;;;2.20;;
48522;SDS011;34315;50.150;11.070;2024-01-25T15:14:13;12.82;;;2.65;;
48522;SDS011;34315;50.150;11.070;2024-01-25T15:19:14;11.90;;;2.40;;
48522;SDS011;34315;50.150;11.070;2024-01-25T15:24:15;10.48;;;2.22;;
48522;SDS011;34315;50.150;11.070;2024-01-25T15:29:17;16.85;;;2.83;;
48522;SDS011;34315;50.150;11.070;2024-01-25T15:34:18;11.95;;;2.92;;
48522;SDS011;34315;50.150;11.070;2024-01-25T15:39:19;15.20;;;2.90;;
48522;SDS011;34315;50.150;11.070;2024-01-25T15:44:20;9.63;;;2.45;;
48522;SDS011;34315;50.150;11.070;2024-01-25T15:49:21;15.73;;;3.10;;
48522;SDS011;34315;50.150;11.070;2024-01-25T15:54:23;14.02;;;3.45;;
48522;SDS011;34315;50.150;11.070;2024-01-25T15:59:25;12.20;;;3.00;;
48522;SDS011;34315;50.150;11.070;2024-01-25T16:04:26;7.97;;;2.45;;
48522;SDS011;34315;50.150;11.070;2024-01-25T16:09:27;12.73;;;3.67;;
48522;SDS011;34315;50.150;11.070;2024-01-25T16:14:28;20.73;;;3.70;;
48522;SDS011;34315;50.150;11.070;2024-01-25T16:19:29;13.23;;;3.20;;
48522;SDS011;34315;50.150;11.070;2024-01-25T16:24:30;12.15;;;3.10;;
48522;SDS011;34315;50.150;11.070;2024-01-25T16:29:31;16.75;;;3.05;;
48522;SDS011;34315;50.150;11.070;2024-01-25T16:34:32;13.88;;;3.25;;
48522;SDS011;34315;50.150;11.070;2024-01-25T16:39:33;12.48;;;3.53;;
48522;SDS011;34315;50.150;11.070;2024-01-25T16:44:34;16.55;;;4.00;;
48522;SDS011;34315;50.150;11.070;2024-01-25T16:49:35;15.70;;;4.80;;
48522;SDS011;34315;50.150;11.070;2024-01-25T16:54:36;18.48;;;5.22;;
48522;SDS011;34315;50.150;11.070;2024-01-25T16:59:37;18.90;;;5.63;;
48522;SDS011;34315;50.150;11.070;2024-01-25T17:04:38;17.75;;;5.93;;
48522;SDS011;34315;50.150;11.070;2024-01-25T17:09:40;18.70;;;5.45;;
48522;SDS011;34315;50.150;11.070;2024-01-25T17:14:41;21.00;;;5.85;;
48522;SDS011;34315;50.150;11.070;2024-01-25T17:19:42;11.23;;;3.92;;
48522;SDS011;34315;50.150;11.070;2024-01-25T17:24:43;24.67;;;6.70;;
48522;SDS011;34315;50.150;11.070;2024-01-25T17:29:44;25.90;;;8.07;;
48522;SDS011;34315;50.150;11.070;2024-01-25T17:34:46;23.83;;;8.60;;
48522;SDS011;34315;50.150;11.070;2024-01-25T17:39:47;17.73;;;6.93;;
48522;SDS011;34315;50.150;11.070;2024-01-25T17:44:49;26.48;;;7.63;;
48522;SDS011;34315;50.150;11.070;2024-01-25T17:49:50;18.52;;;6.13;;
48522;SDS011;34315;50.150;11.070;2024-01-25T17:54:51;21.17;;;6.00;;
48522;SDS011;34315;50.150;11.070;2024-01-25T17:59:52;19.02;;;6.57;;
48522;SDS011;34315;50.150;11.070;2024-01-25T18:04:53;21.65;;;8.65;;
48522;SDS011;34315;50.150;11.070;2024-01-25T18:09:54;23.45;;;8.30;;
48522;SDS011;34315;50.150;11.070;2024-01-25T18:14:55;26.92;;;8.32;;
48522;SDS011;34315;50.150;11.070;2024-01-25T18:19:56;17.55;;;7.78;;
48522;SDS011;34315;50.150;11.070;2024-01-25T18:24:57;19.98;;;8.48;;
48522;SDS011;34315;50.150;11.070;2024-01-25T18:29:58;21.35;;;8.20;;
48522;SDS011;34315;50.150;11.070;2024-01-25T18:34:59;21.23;;;7.97;;
48522;SDS011;34315;50.150;11.070;2024-01-25T18:40:00;22.67;;;8.40;;
48522;SDS011;34315;50.150;11.070;2024-01-25T18:45:04;14.23;;;7.10;;
48522;SDS011;34315;50.150;11.070;2024-01-25T18:50:05;18.98;;;8.55;;
48522;SDS011;34315;50.150;11.070;2024-01-25T18:55:07;23.67;;;9.70;;
48522;SDS011;34315;50.150;11.070;2024-01-25T19:00:09;23.65;;;8.35;;
48522;SDS011;34315;50.150;11.070;2024-01-25T19:05:10;19.80;;;8.75;;
48522;SDS011;34315;50.150;11.070;2024-01-25T19:10:11;25.70;;;8.65;;
48522;SDS011;34315;50.150;11.070;2024-01-25T19:15:13;25.08;;;8.77;;
48522;SDS011;34315;50.150;11.070;2024-01-25T19:20:14;22.58;;;8.88;;
48522;SDS011;34315;50.150;11.070;2024-01-25T19:25:15;24.65;;;9.55;;
48522;SDS011;34315;50.150;11.070;2024-01-25T19:30:16;23.75;;;9.75;;
48522;SDS011;34315;50.150;11.070;2024-01-25T19:35:17;18.65;;;6.57;;
48522;SDS011;34315;50.150;11.070;2024-01-25T19:40:19;22.60;;;7.70;;
48522;SDS011;34315;50.150;11.070;2024-01-25T19:45:20;20.17;;;9.07;;
48522;SDS011;34315;50.150;11.070;2024-01-25T19:50:21;24.33;;;9.23;;
48522;SDS011;34315;50.150;11.070;2024-01-25T19:55:22;14.38;;;7.57;;
48522;SDS011;34315;50.150;11.070;2024-01-25T20:00:24;16.98;;;7.13;;
48522;SDS011;34315;50.150;11.070;2024-01-25T20:05:25;19.00;;;7.32;;
48522;SDS011;34315;50.150;11.070;2024-01-25T20:10:26;33.25;;;13.35;;
48522;SDS011;34315;50.150;11.070;2024-01-25T20:15:28;29.48;;;12.13;;
48522;SDS011;34315;50.150;11.070;2024-01-25T20:20:29;32.20;;;12.73;;
48522;SDS011;34315;50.150;11.070;2024-01-25T20:25:30;31.20;;;13.95;;
48522;SDS011;34315;50.150;11.070;2024-01-25T20:30:31;31.30;;;14.52;;
48522;SDS011;34315;50.150;11.070;2024-01-25T20:35:35;33.67;;;15.15;;
48522;SDS011;34315;50.150;11.070;2024-01-25T20:40:36;31.17;;;15.65;;
48522;SDS011;34315;50.150;11.070;2024-01-25T20:45:37;25.48;;;12.95;;
48522;SDS011;34315;50.150;11.070;2024-01-25T20:50:38;23.08;;;9.27;;
48522;SDS011;34315;50.150;11.070;2024-01-25T20:55:39;21.60;;;7.70;;
48522;SDS011;34315;50.150;11.070;2024-01-25T21:00:40;21.73;;;9.07;;
48522;SDS011;34315;50.150;11.070;2024-01-25T21:05:41;25.73;;;9.48;;
48522;SDS011;34315;50.150;11.070;2024-01-25T21:10:42;22.13;;;11.52;;
48522;SDS011;34315;50.150;11.070;2024-01-25T21:15:45;23.20;;;10.88;;
48522;SDS011;34315;50.150;11.070;2024-01-25T21:20:46;28.67;;;11.15;;
48522;SDS011;34315;50.150;11.070;2024-01-25T21:25:47;18.92;;;7.88;;
48522;SDS011;34315;50.150;11.070;2024-01-25T21:30:48;24.25;;;9.80;;
48522;SDS011;34315;50.150;11.070;2024-01-25T21:35:49;26.80;;;11.55;;
48522;SDS011;34315;50.150;11.070;2024-01-25T21:40:50;32.92;;;13.95;;
48522;SDS011;34315;50.150;11.070;2024-01-25T21:45:52;28.60;;;12.50;;
48522;SDS011;34315;50.150;11.070;2024-01-25T21:50:53;29.83;;;12.40;;
48522;SDS011;34315;50.150;11.070;2024-01-25T21:55:54;31.80;;;12.57;;
48522;SDS011;34315;50.150;11.070;2024-01-25T22:00:55;30.60;;;12.15;;
48522;SDS011;34315;50.150;11.070;2024-01-25T22:05:56;25.55;;;10.98;;
48522;SDS011;34315;50.150;11.070;2024-01-25T22:10:57;22.95;;;10.32;;
48522;SDS011;34315;50.150;11.070;2024-01-25T22:15:59;25.02;;;10.20;;
48522;SDS011;34315;50.150;11.070;2024-01-25T22:21:00;28.83;;;10.90;;
48522;SDS011;34315;50.150;11.070;2024-01-25T22:26:01;24.40;;;10.27;;
48522;SDS011;34315;50.150;11.070;2024-01-25T22:31:02;20.70;;;8.82;;
48522;SDS011;34315;50.150;11.070;2024-01-25T22:36:07;25.65;;;9.60;;
48522;SDS011;34315;50.150;11.070;2024-01-25T22:41:11;20.55;;;9.05;;
48522;SDS011;34315;50.150;11.070;2024-01-25T22:46:13;25.02;;;9.10;;
48522;SDS011;34315;50.150;11.070;2024-01-25T22:51:14;26.45;;;9.05;;
48522;SDS011;34315;50.150;11.070;2024-01-25T22:56:15;22.77;;;10.68;;
48522;SDS011;34315;50.150;11.070;2024-01-25T23:01:16;19.48;;;9.02;;
48522;SDS011;34315;50.150;11.070;2024-01-25T23:06:17;26.02;;;9.10;;
48522;SDS011;34315;50.150;11.070;2024-01-25T23:11:18;22.48;;;9.13;;
48522;SDS011;34315;50.150;11.070;2024-01-25T23:16:19;19.58;;;8.80;;
48522;SDS011;34315;50.150;11.070;2024-01-25T23:21:20;23.02;;;8.82;;
48522;SDS011;34315;50.150;11.070;2024-01-25T23:26:22;20.45;;;8.75;;
48522;SDS011;34315;50.150;11.070;2024-01-25T23:31:23;20.17;;;8.18;;
48522;SDS011;34315;50.150;11.070;2024-01-25T23:36:25;19.42;;;8.75;;
48522;SDS011;34315;50.150;11.070;2024-01-25T23:41:27;20.63;;;9.45;;
48522;SDS011;34315;50.150;11.070;2024-01-25T23:46:28;21.27;;;8.65;;
48522;SDS011;34315;50.150;11.070;2024-01-25T23:51:30;19.67;;;8.35;;
48522;SDS011;34315;50.150;11.070;2024-01-25T23:56:31;22.48;;;9.65;;
